Time;durP1;ratioP1;P1;durP2;ratioP2;P2;SDS_P1;SDS_P2;PMS_P1;PMS_P2;Temp;Humidity;BMP_temperature;BMP_pressure;BME280_temperature;BME280_humidity;BME280_pressure;Samples;Min_cycle;Max_cycle;Signal;HPM_P1;HPM_P2
2023/04/06 00:00:30;;;;;;;5.10;2.60;;;;;;;;;;107781;277;38846;-30
2023/04/06 00:03:22;;;;;;;4.60;2.50;;;;;;;;;;107858;281;39684;-31
2023/04/06 00:05:56;;;;;;;4.50;2.50;;;;;;;;;;107851;281;43037;-31
2023/04/06 00:08:36;;;;;;;5.00;2.60;;;;;;;;;;107818;272;42166;-31
2023/04/06 00:11:13;;;;;;;4.60;2.40;;;;;;;;;;107771;281;38763;-31
2023/04/06 00:13:51;;;;;;;5.20;2.40;;;;;;;;;;107792;278;39735;-31
2023/04/06 00:16:25;;;;;;;4.80;2.40;;;;;;;;;;107855;281;43012;-31
2023/04/06 00:19:08;;;;;;;4.90;2.60;;;;;;;;;;107876;281;42194;-31
2023/04/06 00:21:45;;;;;;;4.40;2.40;;;;;;;;;;107814;281;38804;-31
2023/04/06 00:24:23;;;;;;;4.50;2.50;;;;;;;;;;107166;273;896418;-31
2023/04/06 00:26:58;;;;;;;4.40;2.50;;;;;;;;;;107782;281;43001;-31
2023/04/06 00:29:34;;;;;;;4.60;2.40;;;;;;;;;;107815;280;42047;-31
2023/04/06 00:32:11;;;;;;;4.90;2.40;;;;;;;;;;107793;280;38802;-29
2023/04/06 00:34:47;;;;;;;4.60;2.30;;;;;;;;;;107846;281;39846;-29
2023/04/06 00:37:23;;;;;;;4.60;2.50;;;;;;;;;;107847;281;42846;-30
2023/04/06 00:40:00;;;;;;;5.00;2.40;;;;;;;;;;107838;281;42271;-30
2023/04/06 00:42:35;;;;;;;4.40;2.30;;;;;;;;;;107783;274;38539;-30
2023/04/06 00:45:13;;;;;;;4.90;2.50;;;;;;;;;;107832;281;40135;-30
2023/04/06 00:47:51;;;;;;;4.10;2.10;;;;;;;;;;107724;281;175661;-30
2023/04/06 00:50:27;;;;;;;4.40;2.30;;;;;;;;;;107843;281;44287;-30
2023/04/06 00:53:02;;;;;;;4.60;2.40;;;;;;;;;;107795;276;44831;-30
2023/04/06 00:55:41;;;;;;;4.10;2.20;;;;;;;;;;107844;273;40999;-30
2023/04/06 00:58:17;;;;;;;4.20;2.20;;;;;;;;;;107821;273;42892;-30
2023/04/06 01:00:54;;;;;;;4.30;2.20;;;;;;;;;;107820;281;42146;-30
2023/04/06 01:03:29;;;;;;;4.00;2.00;;;;;;;;;;107870;273;46380;-30
2023/04/06 01:06:05;;;;;;;4.30;2.20;;;;;;;;;;107846;272;39974;-30
2023/04/06 01:08:42;;;;;;;4.30;2.20;;;;;;;;;;107818;273;42914;-29
2023/04/06 01:11:18;;;;;;;4.20;2.30;;;;;;;;;;107847;281;42200;-29
2023/04/06 01:13:54;;;;;;;4.80;2.60;;;;;;;;;;107892;281;38524;-29
2023/04/06 01:16:27;;;;;;;4.60;2.40;;;;;;;;;;107852;281;39713;-29
2023/04/06 01:19:09;;;;;;;4.80;2.40;;;;;;;;;;107883;273;42946;-29
2023/04/06 01:21:44;;;;;;;;;;;;;;;;;;107875;281;42211;-30
2023/04/06 01:24:23;;;;;;;4.60;2.40;;;;;;;;;;107876;281;38961;-30
2023/04/06 01:27:02;;;;;;;5.30;2.70;;;;;;;;;;107864;273;39798;-30
2023/04/06 01:29:40;;;;;;;4.60;2.40;;;;;;;;;;107858;281;43081;-30
2023/04/06 01:32:14;;;;;;;4.60;2.60;;;;;;;;;;107869;273;42158;-30
2023/04/06 01:34:52;;;;;;;4.60;2.60;;;;;;;;;;107874;281;39227;-30
2023/04/06 01:37:30;;;;;;;4.70;2.70;;;;;;;;;;107850;278;39843;-30
2023/04/06 01:40:08;;;;;;;5.20;3.00;;;;;;;;;;107357;274;43454;-30
2023/04/06 01:42:43;;;;;;;5.10;2.90;;;;;;;;;;107826;273;41950;-30
2023/04/06 01:45:18;;;;;;;5.00;2.80;;;;;;;;;;107885;272;39894;-30
2023/04/06 01:47:55;;;;;;;4.50;2.70;;;;;;;;;;107774;282;39853;-30
2023/04/06 01:50:33;;;;;;;4.50;2.70;;;;;;;;;;107886;281;42929;-30
2023/04/06 01:53:09;;;;;;;4.70;2.80;;;;;;;;;;107875;281;42390;-30
2023/04/06 01:55:45;;;;;;;5.40;2.80;;;;;;;;;;107803;281;38843;-30
2023/04/06 01:58:21;;;;;;;4.80;2.90;;;;;;;;;;107680;286;175697;-30
2023/04/06 02:01:01;;;;;;;5.00;3.10;;;;;;;;;;107814;281;42877;-30
2023/04/06 02:03:39;;;;;;;5.00;2.90;;;;;;;;;;107657;281;175691;-30
2023/04/06 02:06:17;;;;;;;4.90;2.90;;;;;;;;;;107776;281;38765;-30
2023/04/06 02:08:52;;;;;;;4.40;2.60;;;;;;;;;;107806;273;39749;-30
2023/04/06 02:11:28;;;;;;;5.40;2.90;;;;;;;;;;107816;281;44065;-30
2023/04/06 02:14:03;;;;;;;5.10;3.00;;;;;;;;;;107798;272;42124;-30
2023/04/06 02:16:40;;;;;;;5.00;2.90;;;;;;;;;;107811;273;38916;-30
2023/04/06 02:19:18;;;;;;;4.70;3.00;;;;;;;;;;107852;278;42069;-30
2023/04/06 02:21:54;;;;;;;4.90;3.10;;;;;;;;;;107800;280;43935;-30
2023/04/06 02:24:32;;;;;;;5.20;3.20;;;;;;;;;;107796;273;42357;-30
2023/04/06 02:27:11;;;;;;;4.90;3.10;;;;;;;;;;107780;273;39957;-30
2023/04/06 02:29:50;;;;;;;4.60;2.70;;;;;;;;;;107812;281;40930;-30
2023/04/06 02:32:24;;;;;;;4.70;3.10;;;;;;;;;;107782;281;43028;-30
2023/04/06 02:35:02;;;;;;;5.00;3.30;;;;;;;;;;107758;281;42258;-30
2023/04/06 02:37:39;;;;;;;4.70;2.80;;;;;;;;;;107823;280;38803;-30
2023/04/06 02:40:20;;;;;;;5.20;2.90;;;;;;;;;;107798;273;40233;-30
2023/04/06 02:42:55;;;;;;;5.20;3.00;;;;;;;;;;107776;272;42874;-30
2023/04/06 02:45:30;;;;;;;5.10;2.90;;;;;;;;;;107778;273;48590;-30
2023/04/06 02:48:04;;;;;;;5.00;2.90;;;;;;;;;;107807;273;38549;-30
2023/04/06 02:50:42;;;;;;;5.30;3.10;;;;;;;;;;107851;281;39792;-30
2023/04/06 02:53:21;;;;;;;4.90;3.10;;;;;;;;;;107770;281;43184;-30
2023/04/06 02:55:58;;;;;;;4.90;3.10;;;;;;;;;;107812;281;42249;-30
2023/04/06 02:58:35;;;;;;;5.60;3.20;;;;;;;;;;107808;281;38793;-30
2023/04/06 03:01:09;;;;;;;5.10;3.10;;;;;;;;;;107813;281;41903;-30
2023/04/06 03:03:43;;;;;;;5.20;3.10;;;;;;;;;;107764;281;42994;-30
2023/04/06 03:06:19;;;;;;;6.10;3.40;;;;;;;;;;107821;282;42167;-30
2023/04/06 03:08:53;;;;;;;5.20;3.30;;;;;;;;;;107210;278;894828;-30
2023/04/06 03:11:27;;;;;;;5.40;3.20;;;;;;;;;;107870;273;39723;-30
2023/04/06 03:14:00;;;;;;;5.10;3.10;;;;;;;;;;107806;273;43839;-30
2023/04/06 03:16:36;;;;;;;5.10;3.10;;;;;;;;;;107804;272;42160;-30
2023/04/06 03:19:09;;;;;;;5.80;3.10;;;;;;;;;;107803;281;38602;-30
2023/04/06 03:21:43;;;;;;;5.80;3.20;;;;;;;;;;107813;281;39987;-30
2023/04/06 03:24:16;;;;;;;5.60;3.20;;;;;;;;;;107762;281;42763;-30
2023/04/06 03:26:50;;;;;;;5.40;3.20;;;;;;;;;;107828;281;43279;-30
2023/04/06 03:29:23;;;;;;;5.80;3.10;;;;;;;;;;107838;272;40906;-30
2023/04/06 03:32:03;;;;;;;5.00;3.40;;;;;;;;;;107818;280;40223;-30
2023/04/06 03:34:38;;;;;;;5.60;3.40;;;;;;;;;;107756;272;42871;-30
2023/04/06 03:37:14;;;;;;;5.70;3.30;;;;;;;;;;107838;272;44348;-30
2023/04/06 03:39:48;;;;;;;5.90;3.30;;;;;;;;;;107193;280;896972;-30
2023/04/06 03:42:22;;;;;;;6.20;3.60;;;;;;;;;;107810;281;40906;-30
2023/04/06 03:44:57;;;;;;;5.60;3.70;;;;;;;;;;107787;281;42866;-30
2023/04/06 03:47:31;;;;;;;6.00;3.60;;;;;;;;;;107789;281;43375;-30
2023/04/06 03:50:07;;;;;;;6.50;3.40;;;;;;;;;;107813;272;38777;-30
2023/04/06 03:52:43;;;;;;;6.00;3.60;;;;;;;;;;107808;281;39824;-30
2023/04/06 03:55:19;;;;;;;5.80;3.30;;;;;;;;;;107803;282;43339;-30
2023/04/06 03:57:55;;;;;;;5.60;3.40;;;;;;;;;;107821;278;41917;-30
2023/04/06 04:00:31;;;;;;;6.50;3.70;;;;;;;;;;107804;272;38768;-30
2023/04/06 04:03:08;;;;;;;5.40;3.30;;;;;;;;;;107817;273;39759;-30
2023/04/06 04:05:44;;;;;;;5.90;3.50;;;;;;;;;;107765;274;42891;-30
2023/04/06 04:08:22;;;;;;;5.90;3.60;;;;;;;;;;107795;273;42247;-30
2023/04/06 04:10:58;;;;;;;6.10;3.80;;;;;;;;;;107803;272;38120;-30
2023/04/06 04:13:33;;;;;;;7.20;4.00;;;;;;;;;;107854;280;39615;-30
2023/04/06 04:16:09;;;;;;;6.70;3.80;;;;;;;;;;107726;274;42946;-30
2023/04/06 04:18:48;;;;;;;7.40;3.90;;;;;;;;;;107829;273;42225;-30
2023/04/06 04:21:26;;;;;;;6.70;3.70;;;;;;;;;;107865;281;38891;-30
2023/04/06 04:24:00;;;;;;;6.90;4.00;;;;;;;;;;107815;281;39896;-30
2023/04/06 04:26:35;;;;;;;6.70;4.00;;;;;;;;;;107774;273;42963;-30
2023/04/06 04:29:11;;;;;;;6.10;3.90;;;;;;;;;;107796;281;41863;-30
2023/04/06 04:31:48;;;;;;;6.40;3.70;;;;;;;;;;107823;281;38915;-30
2023/04/06 04:34:24;;;;;;;6.70;4.20;;;;;;;;;;107798;273;39750;-30
2023/04/06 04:37:00;;;;;;;6.60;3.90;;;;;;;;;;107780;273;43188;-30
2023/04/06 04:39:34;;;;;;;6.50;4.20;;;;;;;;;;107852;281;42262;-30
2023/04/06 04:42:10;;;;;;;6.40;3.90;;;;;;;;;;107835;273;38880;-30
2023/04/06 04:44:48;;;;;;;6.20;4.10;;;;;;;;;;107855;281;40003;-30
2023/04/06 04:47:22;;;;;;;6.00;3.80;;;;;;;;;;107804;272;43341;-30
2023/04/06 04:49:57;;;;;;;6.80;4.00;;;;;;;;;;107917;285;42133;-30
2023/04/06 04:52:34;;;;;;;6.80;3.90;;;;;;;;;;107900;281;39152;-30
2023/04/06 04:55:10;;;;;;;6.40;4.40;;;;;;;;;;107929;278;39770;-30
2023/04/06 04:57:47;;;;;;;6.10;4.10;;;;;;;;;;107811;281;43950;-30
2023/04/06 05:00:22;;;;;;;6.30;4.00;;;;;;;;;;107883;281;42152;-30
2023/04/06 05:02:57;;;;;;;6.40;4.00;;;;;;;;;;107858;281;39943;-30
2023/04/06 05:05:34;;;;;;;6.70;4.20;;;;;;;;;;107898;281;39780;-30
2023/04/06 05:08:11;;;;;;;6.60;3.90;;;;;;;;;;107869;281;49470;-30
2023/04/06 05:10:47;;;;;;;6.70;4.00;;;;;;;;;;107890;281;42251;-30
2023/04/06 05:13:28;;;;;;;6.60;4.20;;;;;;;;;;107897;273;38867;-30
2023/04/06 05:16:02;;;;;;;6.40;4.10;;;;;;;;;;107864;273;39545;-30
2023/04/06 05:18:39;;;;;;;6.30;3.80;;;;;;;;;;107844;281;49119;-30
2023/04/06 05:21:14;;;;;;;6.20;4.00;;;;;;;;;;107934;281;42287;-30
2023/04/06 05:23:50;;;;;;;6.90;4.20;;;;;;;;;;107881;281;38973;-30
2023/04/06 05:26:26;;;;;;;6.60;3.90;;;;;;;;;;107867;281;39817;-30
2023/04/06 05:29:04;;;;;;;6.10;3.60;;;;;;;;;;107882;272;43131;-30
2023/04/06 05:31:39;;;;;;;5.70;3.80;;;;;;;;;;107927;281;42390;-30
2023/04/06 05:34:15;;;;;;;6.30;3.70;;;;;;;;;;107879;273;38746;-30
2023/04/06 05:36:51;;;;;;;6.20;3.80;;;;;;;;;;107848;273;39721;-30
2023/04/06 05:39:26;;;;;;;6.10;3.80;;;;;;;;;;107874;273;42969;-30
2023/04/06 05:42:02;;;;;;;5.90;3.80;;;;;;;;;;107884;273;42224;-30
2023/04/06 05:44:40;;;;;;;6.00;3.70;;;;;;;;;;107928;273;39082;-30
2023/04/06 05:47:15;;;;;;;6.20;4.00;;;;;;;;;;107833;272;39706;-30
2023/04/06 05:49:51;;;;;;;5.50;3.60;;;;;;;;;;107877;280;42882;-30
2023/04/06 05:52:26;;;;;;;5.80;3.50;;;;;;;;;;107933;281;42577;-30
2023/04/06 05:55:02;;;;;;;6.60;3.70;;;;;;;;;;107861;272;38565;-30
2023/04/06 05:57:37;;;;;;;6.80;3.80;;;;;;;;;;107736;272;39692;-31
2023/04/06 06:00:17;;;;;;;6.90;4.00;;;;;;;;;;107803;281;42855;-31
2023/04/06 06:02:51;;;;;;;6.00;3.70;;;;;;;;;;107823;281;42289;-31
2023/04/06 06:05:29;;;;;;;6.60;3.30;;;;;;;;;;107838;273;38780;-31
2023/04/06 06:08:07;;;;;;;7.00;3.90;;;;;;;;;;107804;281;39692;-31
2023/04/06 06:10:44;;;;;;;5.80;3.20;;;;;;;;;;107772;281;42858;-31
2023/04/06 06:13:21;;;;;;;5.70;3.40;;;;;;;;;;107840;272;42136;-31
2023/04/06 06:15:57;;;;;;;6.80;3.50;;;;;;;;;;107824;281;38806;-31
2023/04/06 06:18:36;;;;;;;5.80;3.30;;;;;;;;;;107770;272;39839;-31
2023/04/06 06:21:12;;;;;;;6.30;3.80;;;;;;;;;;107817;273;42637;-31
2023/04/06 06:23:50;;;;;;;5.90;3.60;;;;;;;;;;107847;281;42251;-31
2023/04/06 06:26:29;;;;;;;6.50;3.40;;;;;;;;;;107837;281;38845;-31
2023/04/06 06:29:15;;;;;;;6.60;3.60;;;;;;;;;;107784;282;39433;-30
2023/04/06 06:31:52;;;;;;;6.40;3.40;;;;;;;;;;107160;273;915764;-31
2023/04/06 06:34:33;;;;;;;5.90;3.40;;;;;;;;;;107813;281;42353;-31
2023/04/06 06:37:08;;;;;;;5.80;3.50;;;;;;;;;;107866;280;38893;-31
2023/04/06 06:39:42;;;;;;;5.70;3.20;;;;;;;;;;107765;273;39731;-31
2023/04/06 06:42:17;;;;;;;5.80;3.40;;;;;;;;;;107797;272;44031;-31
2023/04/06 06:44:56;;;;;;;5.90;3.20;;;;;;;;;;107826;281;42443;-31
2023/04/06 06:47:32;;;;;;;6.60;3.40;;;;;;;;;;107778;281;39159;-31
2023/04/06 06:50:10;;;;;;;8.80;4.10;;;;;;;;;;107615;281;175637;-33
2023/04/06 06:52:49;;;;;;;8.30;3.90;;;;;;;;;;107749;281;43135;-34
2023/04/06 06:55:23;;;;;;;8.30;4.00;;;;;;;;;;107734;273;42226;-32
2023/04/06 06:57:56;;;;;;;8.20;4.10;;;;;;;;;;107804;281;38758;-32
2023/04/06 07:00:32;;;;;;;9.20;4.20;;;;;;;;;;107642;273;175641;-32
2023/04/06 07:03:09;;;;;;;10.20;4.60;;;;;;;;;;107759;272;42890;-32
2023/04/06 07:05:54;;;;;;;9.80;4.40;;;;;;;;;;107764;272;42214;-33
2023/04/06 07:08:29;;;;;;;8.00;3.80;;;;;;;;;;107748;281;38818;-32
2023/04/06 07:11:05;;;;;;;7.40;4.10;;;;;;;;;;107782;273;45001;-32
2023/04/06 07:13:40;;;;;;;8.00;3.90;;;;;;;;;;107735;281;42980;-32
2023/04/06 07:16:18;;;;;;;10.40;4.30;;;;;;;;;;107739;281;42256;-31
2023/04/06 07:18:55;;;;;;;10.10;4.30;;;;;;;;;;107738;281;38930;-28
2023/04/06 07:21:29;;;;;;;7.60;4.30;;;;;;;;;;107797;280;39732;-29
2023/04/06 07:24:04;;;;;;;7.10;3.70;;;;;;;;;;107751;281;42983;-30
2023/04/06 07:26:38;;;;;;;8.20;4.20;;;;;;;;;;107734;273;42413;-30
2023/04/06 07:29:14;;;;;;;7.70;3.80;;;;;;;;;;107696;273;38809;-30
2023/04/06 07:31:48;;;;;;;8.40;3.80;;;;;;;;;;107750;281;39433;-30
2023/04/06 07:34:22;;;;;;;7.60;3.90;;;;;;;;;;107731;282;43035;-30
2023/04/06 07:37:02;;;;;;;8.10;3.90;;;;;;;;;;107744;273;42267;-30
2023/04/06 07:39:36;;;;;;;8.10;3.50;;;;;;;;;;107711;273;38766;-30
2023/04/06 07:42:10;;;;;;;6.30;3.30;;;;;;;;;;107723;281;39701;-30
2023/04/06 07:44:54;;;;;;;8.00;3.80;;;;;;;;;;107739;273;43011;-29
2023/04/06 07:47:29;;;;;;;7.90;3.80;;;;;;;;;;107678;282;42173;-30
2023/04/06 07:50:06;;;;;;;6.80;3.50;;;;;;;;;;107709;273;38767;-29
2023/04/06 07:52:43;;;;;;;6.90;3.40;;;;;;;;;;107763;273;39446;-30
2023/04/06 07:55:21;;;;;;;7.20;3.50;;;;;;;;;;107765;273;44012;-30
2023/04/06 07:57:58;;;;;;;7.00;3.50;;;;;;;;;;107750;282;42165;-30
2023/04/06 08:00:34;;;;;;;7.90;3.40;;;;;;;;;;107695;273;38943;-30
2023/04/06 08:03:11;;;;;;;6.40;3.40;;;;;;;;;;107742;273;39937;-30
2023/04/06 08:05:46;;;;;;;6.70;3.50;;;;;;;;;;107762;281;42998;-30
2023/04/06 08:08:22;;;;;;;7.10;3.30;;;;;;;;;;107741;282;42234;-30
2023/04/06 08:10:57;;;;;;;6.40;3.20;;;;;;;;;;107695;281;38940;-30
2023/04/06 08:13:38;;;;;;;5.90;2.90;;;;;;;;;;108122;281;40864;-30
2023/04/06 08:16:14;;;;;;;6.90;3.20;;;;;;;;;;107772;282;42963;-30
2023/04/06 08:18:51;;;;;;;6.30;3.20;;;;;;;;;;107781;273;42222;-30
2023/04/06 08:21:27;;;;;;;6.20;2.90;;;;;;;;;;107711;281;38793;-31
2023/04/06 08:24:01;;;;;;;6.20;2.80;;;;;;;;;;107717;281;39879;-32
2023/04/06 08:26:38;;;;;;;6.50;3.00;;;;;;;;;;107730;273;43032;-32
2023/04/06 08:29:14;;;;;;;6.40;2.90;;;;;;;;;;107745;281;42166;-32
2023/04/06 08:31:56;;;;;;;5.80;2.70;;;;;;;;;;107721;282;38869;-31
2023/04/06 08:34:32;;;;;;;5.80;3.00;;;;;;;;;;107779;282;40862;-29
2023/04/06 08:37:10;;;;;;;6.40;2.80;;;;;;;;;;107717;281;43359;-30
2023/04/06 08:39:45;;;;;;;5.40;2.70;;;;;;;;;;107718;286;43231;-30
2023/04/06 08:42:26;;;;;;;5.50;2.50;;;;;;;;;;107595;273;175252;-30
2023/04/06 08:45:05;;;;;;;6.50;2.90;;;;;;;;;;107733;281;39782;-30
2023/04/06 08:47:40;;;;;;;6.70;3.20;;;;;;;;;;107731;281;42874;-30
2023/04/06 08:50:17;;;;;;;6.90;3.10;;;;;;;;;;107775;273;42237;-32
2023/04/06 08:52:52;;;;;;;5.60;2.50;;;;;;;;;;107678;281;38780;-32
2023/04/06 08:55:29;;;;;;;5.90;2.80;;;;;;;;;;107760;273;39818;-33
2023/04/06 08:58:03;;;;;;;6.50;3.00;;;;;;;;;;107775;280;42851;-30
2023/04/06 09:00:39;;;;;;;5.20;2.60;;;;;;;;;;107757;281;42540;-31
2023/04/06 09:03:18;;;;;;;7.00;2.70;;;;;;;;;;107886;281;44346;-31
2023/04/06 09:05:53;;;;;;;5.90;2.40;;;;;;;;;;107741;282;39709;-31
2023/04/06 09:08:29;;;;;;;5.50;2.70;;;;;;;;;;107734;273;42882;-32
2023/04/06 09:11:11;;;;;;;5.60;2.70;;;;;;;;;;107707;273;42641;-31
2023/04/06 09:13:54;;;;;;;5.30;2.50;;;;;;;;;;107777;281;47038;-32
2023/04/06 09:16:39;;;;;;;5.80;2.40;;;;;;;;;;107733;273;39640;-32
2023/04/06 09:19:15;;;;;;;5.80;2.50;;;;;;;;;;107794;281;42609;-32
2023/04/06 09:21:51;;;;;;;5.50;2.50;;;;;;;;;;107100;281;913702;-32
2023/04/06 09:24:27;;;;;;;4.70;2.40;;;;;;;;;;107799;281;39074;-32
2023/04/06 09:27:03;;;;;;;5.80;2.70;;;;;;;;;;107775;281;39719;-32
2023/04/06 09:29:37;;;;;;;5.00;2.40;;;;;;;;;;107667;281;175644;-32
2023/04/06 09:32:16;;;;;;;4.90;2.60;;;;;;;;;;107674;273;42257;-32
2023/04/06 09:34:51;;;;;;;5.30;2.40;;;;;;;;;;107732;273;39885;-30
2023/04/06 09:37:28;;;;;;;5.90;2.50;;;;;;;;;;107727;281;39731;-30
2023/04/06 09:40:09;;;;;;;4.80;2.40;;;;;;;;;;107277;273;529619;-30
2023/04/06 09:42:47;;;;;;;5.20;2.50;;;;;;;;;;107683;282;42176;-30
2023/04/06 09:45:28;;;;;;;5.20;2.60;;;;;;;;;;107721;281;38777;-30
2023/04/06 09:48:02;;;;;;;6.10;3.00;;;;;;;;;;107689;281;39484;-30
2023/04/06 09:50:40;;;;;;;6.10;2.90;;;;;;;;;;107709;281;43047;-30
2023/04/06 09:53:14;;;;;;;5.90;2.70;;;;;;;;;;107673;282;43238;-30
2023/04/06 09:55:52;;;;;;;5.80;2.60;;;;;;;;;;107734;273;38813;-30
2023/04/06 09:58:35;;;;;;;5.00;2.50;;;;;;;;;;107705;281;40878;-32
2023/04/06 10:01:23;;;;;;;5.40;2.40;;;;;;;;;;107757;273;42877;-32
2023/04/06 10:04:14;;;;;;;6.20;2.60;;;;;;;;;;107764;281;42174;-31
2023/04/06 10:06:52;;;;;;;5.10;2.20;;;;;;;;;;107814;281;38816;-31
2023/04/06 10:09:35;;;;;;;4.70;2.20;;;;;;;;;;107845;273;39710;-31
2023/04/06 10:12:12;;;;;;;5.30;2.20;;;;;;;;;;107813;281;44340;-31
2023/04/06 10:14:49;;;;;;;4.70;2.10;;;;;;;;;;107924;280;48947;-31
2023/04/06 10:17:25;;;;;;;4.50;2.10;;;;;;;;;;107871;273;38824;-30
2023/04/06 10:20:07;;;;;;;5.80;2.30;;;;;;;;;;107702;282;175651;-30
2023/04/06 10:22:53;;;;;;;4.70;2.20;;;;;;;;;;107811;281;44038;-30
2023/04/06 10:25:39;;;;;;;4.40;2.00;;;;;;;;;;107841;280;50501;-30
2023/04/06 10:28:17;;;;;;;5.20;2.30;;;;;;;;;;107806;281;38942;-30
2023/04/06 10:30:57;;;;;;;4.70;2.20;;;;;;;;;;107785;282;39819;-30
2023/04/06 10:33:31;;;;;;;4.70;2.30;;;;;;;;;;107128;281;895397;-30
2023/04/06 10:36:16;;;;;;;4.50;2.10;;;;;;;;;;107813;281;41985;-30
2023/04/06 10:38:57;;;;;;;4.60;2.20;;;;;;;;;;107847;281;38924;-30
2023/04/06 10:41:42;;;;;;;4.80;2.20;;;;;;;;;;107799;273;39710;-30
2023/04/06 10:44:26;;;;;;;5.10;2.20;;;;;;;;;;107768;274;42839;-32
2023/04/06 10:47:04;;;;;;;4.30;2.10;;;;;;;;;;107811;281;42137;-30
2023/04/06 10:49:39;;;;;;;4.80;2.10;;;;;;;;;;107794;273;39134;-30
2023/04/06 10:52:16;;;;;;;4.30;2.20;;;;;;;;;;107771;281;39743;-32
2023/04/06 10:54:52;;;;;;;4.80;2.10;;;;;;;;;;107737;273;43070;-32
2023/04/06 10:57:36;;;;;;;4.70;2.00;;;;;;;;;;107813;281;42276;-32
2023/04/06 11:00:15;;;;;;;4.30;2.00;;;;;;;;;;107845;278;38782;-31
2023/04/06 11:02:52;;;;;;;4.40;2.10;;;;;;;;;;107848;273;40838;-31
2023/04/06 11:05:28;;;;;;;4.30;2.10;;;;;;;;;;107755;281;43115;-31
2023/04/06 11:08:02;;;;;;;4.50;1.90;;;;;;;;;;107772;273;42209;-31
2023/04/06 11:10:37;;;;;;;4.30;2.00;;;;;;;;;;107780;273;39822;-31
2023/04/06 11:13:12;;;;;;;4.20;2.10;;;;;;;;;;107778;273;40760;-31
2023/04/06 11:15:46;;;;;;;4.30;2.00;;;;;;;;;;107732;281;42653;-31
2023/04/06 11:18:24;;;;;;;5.10;2.00;;;;;;;;;;107762;281;42680;-31
2023/04/06 11:20:58;;;;;;;4.00;2.00;;;;;;;;;;107803;281;38922;-31
2023/04/06 11:23:33;;;;;;;4.50;2.00;;;;;;;;;;107785;277;39843;-31
2023/04/06 11:26:15;;;;;;;4.30;2.20;;;;;;;;;;107699;281;42907;-31
2023/04/06 11:28:52;;;;;;;3.90;1.80;;;;;;;;;;107846;282;42373;-31
2023/04/06 11:31:29;;;;;;;4.40;2.00;;;;;;;;;;107797;281;39891;-31
2023/04/06 11:34:11;;;;;;;4.20;2.00;;;;;;;;;;107882;278;39695;-31
2023/04/06 11:36:54;;;;;;;4.60;2.10;;;;;;;;;;107966;273;48571;-31
2023/04/06 11:39:40;;;;;;;4.10;1.90;;;;;;;;;;107843;281;43449;-31
2023/04/06 11:42:21;;;;;;;4.00;1.90;;;;;;;;;;107862;280;38750;-31
2023/04/06 11:45:00;;;;;;;4.00;1.80;;;;;;;;;;107858;273;39797;-31
2023/04/06 11:47:41;;;;;;;4.40;2.20;;;;;;;;;;107838;278;42869;-31
2023/04/06 11:50:38;;;;;;;4.50;2.00;;;;;;;;;;107951;278;41945;-30
2023/04/06 11:53:14;;;;;;;4.70;2.10;;;;;;;;;;107919;278;39930;-31
2023/04/06 11:55:50;;;;;;;4.80;2.00;;;;;;;;;;107759;279;39740;-31
2023/04/06 11:58:29;;;;;;;4.20;2.00;;;;;;;;;;107797;279;42847;-31
2023/04/06 12:01:08;;;;;;;4.10;2.30;;;;;;;;;;107870;278;41902;-30
2023/04/06 12:03:45;;;;;;;3.90;2.00;;;;;;;;;;107811;276;39891;-31
2023/04/06 12:06:19;;;;;;;4.20;2.20;;;;;;;;;;107872;279;40884;-31
2023/04/06 12:08:59;;;;;;;4.10;2.10;;;;;;;;;;107897;279;42754;-31
2023/04/06 12:11:32;;;;;;;5.20;2.40;;;;;;;;;;107869;275;42115;-31
2023/04/06 12:14:11;;;;;;;4.20;2.10;;;;;;;;;;107924;279;38944;-31
2023/04/06 12:16:47;;;;;;;4.10;2.30;;;;;;;;;;107805;279;41276;-31
2023/04/06 12:19:25;;;;;;;4.60;2.40;;;;;;;;;;107867;271;42922;-31
2023/04/06 12:22:06;;;;;;;4.30;2.00;;;;;;;;;;107878;276;43254;-31
2023/04/06 12:24:42;;;;;;;4.20;2.10;;;;;;;;;;107821;271;39954;-31
2023/04/06 12:27:19;;;;;;;4.20;2.20;;;;;;;;;;107865;279;40905;-31
2023/04/06 12:29:56;;;;;;;4.30;2.10;;;;;;;;;;107901;279;42945;-31
2023/04/06 12:32:31;;;;;;;3.90;2.10;;;;;;;;;;107848;270;41919;-31
2023/04/06 12:35:08;;;;;;;4.80;2.30;;;;;;;;;;107908;279;38959;-31
2023/04/06 12:37:43;;;;;;;4.10;2.00;;;;;;;;;;107821;275;41015;-30
2023/04/06 12:40:17;;;;;;;4.30;1.90;;;;;;;;;;107869;271;42852;-31
2023/04/06 12:42:52;;;;;;;4.80;2.10;;;;;;;;;;107915;279;43141;-31
2023/04/06 12:45:29;;;;;;;4.20;2.20;;;;;;;;;;107883;279;38781;-31
2023/04/06 12:48:05;;;;;;;4.20;2.10;;;;;;;;;;107832;279;39713;-31
2023/04/06 12:50:39;;;;;;;4.00;1.90;;;;;;;;;;107826;271;44042;-31
2023/04/06 12:53:13;;;;;;;4.10;2.00;;;;;;;;;;107856;279;43312;-31
2023/04/06 12:55:51;;;;;;;4.10;2.00;;;;;;;;;;107822;279;40097;-31
2023/04/06 12:58:29;;;;;;;4.10;2.00;;;;;;;;;;107837;271;45164;-31
2023/04/06 13:01:09;;;;;;;4.30;2.20;;;;;;;;;;107881;279;42846;-30
2023/04/06 13:03:46;;;;;;;4.20;2.00;;;;;;;;;;107815;272;43279;-31
2023/04/06 13:06:27;;;;;;;4.30;2.00;;;;;;;;;;107850;278;40010;-31
2023/04/06 13:09:05;;;;;;;4.00;1.90;;;;;;;;;;107837;271;47350;-31
2023/04/06 13:11:41;;;;;;;4.70;2.20;;;;;;;;;;107849;279;43000;-31
2023/04/06 13:14:16;;;;;;;4.40;2.10;;;;;;;;;;107179;279;895343;-31
2023/04/06 13:16:52;;;;;;;3.80;1.90;;;;;;;;;;107821;271;39197;-31
2023/04/06 13:19:27;;;;;;;5.00;2.30;;;;;;;;;;107811;279;40911;-31
2023/04/06 13:22:01;;;;;;;4.20;2.10;;;;;;;;;;107836;279;42854;-31
2023/04/06 13:24:35;;;;;;;4.00;2.00;;;;;;;;;;107727;279;175636;-31
2023/04/06 13:27:09;;;;;;;4.10;2.00;;;;;;;;;;107825;272;38757;-31
2023/04/06 13:29:45;;;;;;;4.20;2.00;;;;;;;;;;107820;272;40975;-32
2023/04/06 13:32:21;;;;;;;4.00;2.00;;;;;;;;;;107841;279;43013;-32
2023/04/06 13:35:03;;;;;;;4.00;2.10;;;;;;;;;;107832;272;42425;-32
2023/04/06 13:37:40;;;;;;;4.60;2.00;;;;;;;;;;107790;271;38862;-32
2023/04/06 13:40:15;;;;;;;4.60;2.00;;;;;;;;;;107894;275;41006;-33
2023/04/06 13:42:52;;;;;;;3.90;2.00;;;;;;;;;;107860;275;43446;-33
2023/04/06 13:45:27;;;;;;;4.50;1.80;;;;;;;;;;107855;279;42353;-34
2023/04/06 13:48:04;;;;;;;4.60;1.80;;;;;;;;;;107780;279;38548;-33
2023/04/06 13:50:42;;;;;;;4.30;1.90;;;;;;;;;;107854;271;40175;-33
2023/04/06 13:53:18;;;;;;;3.60;1.90;;;;;;;;;;107897;279;42642;-32
2023/04/06 13:55:57;;;;;;;4.30;1.90;;;;;;;;;;107205;275;894719;-31
2023/04/06 13:58:36;;;;;;;4.40;2.00;;;;;;;;;;107838;271;38810;-32
2023/04/06 14:01:12;;;;;;;4.80;1.90;;;;;;;;;;107913;279;39899;-32
2023/04/06 14:03:47;;;;;;;4.20;2.00;;;;;;;;;;107865;271;42672;-32
2023/04/06 14:06:25;;;;;;;4.50;1.90;;;;;;;;;;107843;279;42270;-31
2023/04/06 14:09:04;;;;;;;4.20;2.00;;;;;;;;;;107844;271;38935;-31
2023/04/06 14:11:37;;;;;;;4.60;1.90;;;;;;;;;;107862;272;39649;-31
2023/04/06 14:14:11;;;;;;;4.60;2.00;;;;;;;;;;107856;279;43153;-31
2023/04/06 14:16:45;;;;;;;4.20;1.90;;;;;;;;;;107909;277;42123;-32
2023/04/06 14:19:20;;;;;;;4.20;1.80;;;;;;;;;;107762;276;38878;-31
2023/04/06 14:21:54;;;;;;;4.10;1.90;;;;;;;;;;107849;279;39780;-31
2023/04/06 14:24:30;;;;;;;3.90;1.90;;;;;;;;;;107809;279;42840;-31
2023/04/06 14:27:04;;;;;;;4.10;1.70;;;;;;;;;;107793;271;42107;-32
2023/04/06 14:29:39;;;;;;;3.70;1.80;;;;;;;;;;107789;279;38844;-31
2023/04/06 14:32:13;;;;;;;4.00;1.80;;;;;;;;;;107872;271;39706;-30
2023/04/06 14:34:47;;;;;;;3.80;2.00;;;;;;;;;;107927;279;42895;-31
2023/04/06 14:37:22;;;;;;;4.20;2.10;;;;;;;;;;107734;279;175561;-31
2023/04/06 14:40:00;;;;;;;5.60;1.90;;;;;;;;;;107857;271;38953;-31
2023/04/06 14:42:37;;;;;;;3.50;1.80;;;;;;;;;;107886;279;40172;-31
2023/04/06 14:45:12;;;;;;;3.80;1.60;;;;;;;;;;107854;279;43148;-31
2023/04/06 14:47:50;;;;;;;3.90;1.80;;;;;;;;;;107891;279;42431;-31
2023/04/06 14:50:26;;;;;;;3.80;1.80;;;;;;;;;;107750;279;38782;-31
2023/04/06 14:53:01;;;;;;;3.90;1.90;;;;;;;;;;107757;272;39833;-31
2023/04/06 14:55:40;;;;;;;4.20;1.70;;;;;;;;;;107767;279;42905;-31
2023/04/06 14:58:16;;;;;;;4.50;2.00;;;;;;;;;;107766;272;42178;-31
2023/04/06 15:00:58;;;;;;;3.60;1.60;;;;;;;;;;107763;279;38816;-32
2023/04/06 15:03:34;;;;;;;3.80;1.90;;;;;;;;;;107693;272;175580;-32
2023/04/06 15:06:15;;;;;;;3.60;1.90;;;;;;;;;;107818;271;42975;-32
2023/04/06 15:08:51;;;;;;;;;;;;;;;;;;107812;279;42257;-32
2023/04/06 15:11:24;;;;;;;4.20;1.50;;;;;;;;;;107805;279;38875;-32
2023/04/06 15:13:57;;;;;;;4.40;2.00;;;;;;;;;;107773;272;39741;-32
2023/04/06 15:16:34;;;;;;;3.80;1.80;;;;;;;;;;107759;279;43201;-32
2023/04/06 15:19:08;;;;;;;4.10;2.00;;;;;;;;;;107765;279;42163;-32
2023/04/06 15:21:42;;;;;;;4.10;1.90;;;;;;;;;;107774;272;45207;-32
2023/04/06 15:24:16;;;;;;;4.20;2.00;;;;;;;;;;107796;272;39437;-31
2023/04/06 15:26:50;;;;;;;3.80;1.70;;;;;;;;;;107818;280;42935;-31
2023/04/06 15:29:26;;;;;;;3.80;1.80;;;;;;;;;;107769;279;41898;-31
2023/04/06 15:32:01;;;;;;;4.20;1.80;;;;;;;;;;107828;279;47172;-31
2023/04/06 15:34:35;;;;;;;4.10;1.80;;;;;;;;;;107770;279;39705;-31
2023/04/06 15:37:10;;;;;;;4.00;1.90;;;;;;;;;;107800;272;42834;-31
2023/04/06 15:39:45;;;;;;;4.30;2.10;;;;;;;;;;107741;272;42179;-31